createdAt,value
2022-11-17T00:00:39.736Z,23.81
2022-11-17T00:10:44.866Z,23.80
2022-11-17T00:20:50.027Z,23.76
2022-11-17T00:30:55.239Z,23.73
2022-11-17T00:41:00.713Z,23.70
2022-11-17T00:51:06.092Z,23.69
2022-11-17T01:01:11.243Z,23.64
2022-11-17T01:11:16.475Z,23.55
2022-11-17T01:21:21.470Z,23.57
2022-11-17T01:31:27.202Z,23.56
2022-11-17T01:41:32.608Z,23.57
2022-11-17T01:51:37.990Z,23.55
2022-11-17T02:01:43.103Z,23.51
2022-11-17T02:11:48.586Z,23.44
2022-11-17T02:21:53.860Z,23.42
2022-11-17T02:31:59.107Z,23.47
2022-11-17T02:42:04.501Z,23.40
2022-11-17T02:52:10.169Z,23.41
2022-11-17T03:02:15.230Z,23.37
2022-11-17T03:12:20.591Z,23.40
2022-11-17T03:22:26.124Z,23.38
2022-11-17T03:32:31.423Z,23.32
2022-11-17T03:42:36.738Z,23.31
2022-11-17T03:52:42.017Z,23.31
2022-11-17T04:02:47.098Z,23.29
2022-11-17T04:12:52.082Z,23.28
2022-11-17T04:22:57.324Z,23.29
2022-11-17T04:33:02.902Z,23.25
2022-11-17T04:43:08.064Z,23.24
2022-11-17T04:53:13.575Z,23.29
2022-11-17T05:03:18.957Z,23.29
2022-11-17T05:13:24.116Z,23.28
2022-11-17T05:23:29.165Z,23.23
2022-11-17T05:33:37.801Z,23.16
2022-11-17T05:43:43.308Z,23.21
2022-11-17T05:53:48.745Z,23.25
2022-11-17T06:03:54.261Z,23.31
2022-11-17T06:13:59.701Z,23.20
2022-11-17T06:24:04.897Z,23.24
2022-11-17T06:34:10.421Z,23.27
2022-11-17T06:44:15.942Z,23.23
2022-11-17T06:54:21.121Z,23.19
2022-11-17T07:04:27.436Z,23.17
2022-11-17T07:14:32.974Z,23.16
2022-11-17T07:24:39.322Z,23.16
2022-11-17T07:34:44.603Z,23.21
2022-11-17T07:44:50.628Z,23.28
2022-11-17T07:54:56.450Z,23.26
2022-11-17T08:05:02.027Z,23.34
2022-11-17T08:15:08.010Z,23.28
2022-11-17T08:25:13.289Z,23.26
2022-11-17T08:35:18.421Z,23.26
2022-11-17T08:45:23.563Z,23.31
2022-11-17T08:55:29.331Z,23.46
2022-11-17T09:05:34.632Z,23.38
2022-11-17T09:15:40.126Z,23.43
2022-11-17T09:25:46.199Z,23.41
2022-11-17T09:35:51.195Z,23.37
2022-11-17T09:45:56.559Z,23.30
2022-11-17T09:56:01.651Z,23.25
2022-11-17T10:06:07.217Z,23.28
2022-11-17T10:16:12.697Z,23.41
2022-11-17T10:26:17.846Z,23.37
2022-11-17T10:36:22.908Z,23.41
2022-11-17T10:46:35.618Z,23.20
2022-11-17T10:56:38.627Z,23.14
2022-11-17T11:06:43.499Z,23.10
2022-11-17T11:16:48.738Z,23.10
2022-11-17T11:26:53.943Z,23.07
2022-11-17T11:36:59.173Z,23.01
2022-11-17T11:47:04.626Z,23.00
2022-11-17T11:57:10.323Z,22.97
2022-11-17T12:07:15.973Z,22.98
2022-11-17T12:17:21.383Z,22.94
2022-11-17T12:27:26.635Z,22.94
2022-11-17T12:37:32.143Z,22.91
2022-11-17T12:47:37.488Z,22.87
2022-11-17T12:57:42.736Z,22.87
2022-11-17T13:07:48.104Z,22.84
2022-11-17T13:17:53.481Z,22.83
2022-11-17T13:28:04.169Z,22.83
2022-11-17T13:38:09.156Z,22.82
2022-11-17T13:48:15.598Z,22.80
2022-11-17T13:58:25.872Z,22.81
2022-11-17T14:08:31.612Z,22.76
2022-11-17T14:18:36.959Z,22.76
2022-11-17T14:28:42.764Z,22.75
2022-11-17T14:38:48.399Z,22.74
2022-11-17T14:48:54.061Z,22.68
2022-11-17T14:58:59.637Z,22.67
2022-11-17T15:09:05.078Z,22.69
2022-11-17T15:19:10.993Z,22.68
2022-11-17T15:29:17.057Z,22.69
2022-11-17T15:39:22.967Z,22.69
2022-11-17T15:49:28.099Z,22.65
2022-11-17T15:59:33.718Z,22.67
2022-11-17T16:09:38.917Z,22.75
2022-11-17T16:19:44.750Z,22.91
2022-11-17T16:29:50.491Z,22.95
2022-11-17T16:39:56.349Z,23.04
2022-11-17T16:50:01.775Z,23.12
2022-11-17T17:00:07.561Z,23.18
2022-11-17T17:10:13.100Z,23.14
2022-11-17T17:20:18.327Z,23.14
2022-11-17T17:30:23.727Z,23.12
2022-11-17T17:40:29.281Z,23.13
2022-11-17T17:50:34.890Z,23.13
2022-11-17T18:00:39.940Z,23.12
2022-11-17T18:10:45.557Z,23.12
2022-11-17T18:20:51.031Z,23.10
2022-11-17T18:30:56.097Z,23.10
2022-11-17T18:41:01.467Z,23.08
2022-11-17T18:51:19.175Z,23.12
2022-11-17T19:01:16.545Z,23.10
2022-11-17T19:11:22.108Z,23.02
2022-11-17T19:21:27.321Z,23.01
2022-11-17T19:31:32.494Z,23.01
2022-11-17T19:41:37.964Z,23.05
2022-11-17T19:51:43.260Z,23.07
2022-11-17T20:01:48.705Z,23.10
2022-11-17T20:11:54.109Z,23.07
2022-11-17T20:21:59.356Z,23.03
2022-11-17T20:32:04.784Z,23.14
2022-11-17T20:42:09.990Z,23.08
2022-11-17T20:52:15.206Z,23.04
2022-11-17T21:02:20.855Z,23.06
2022-11-17T21:12:26.331Z,23.08
2022-11-17T21:22:31.547Z,23.11
2022-11-17T21:32:36.987Z,23.12
2022-11-17T21:42:42.341Z,23.11
2022-11-17T21:52:47.284Z,23.20
2022-11-17T22:02:52.695Z,23.27
2022-11-17T22:12:57.840Z,23.28
2022-11-17T22:23:03.416Z,23.44
2022-11-17T22:33:08.798Z,23.49
2022-11-17T22:43:15.554Z,23.51
2022-11-17T22:53:20.984Z,23.51
2022-11-17T23:03:26.021Z,23.50
2022-11-17T23:13:31.113Z,23.50
2022-11-17T23:23:36.423Z,23.58
2022-11-17T23:33:41.671Z,23.57
2022-11-17T23:43:47.169Z,23.55
2022-11-17T23:53:52.504Z,23.58
